createdAt,value
2023-02-24T00:00:34.153Z,4.51
2023-02-24T00:02:08.405Z,4.38
2023-02-24T00:03:45.119Z,4.36
2023-02-24T00:05:19.360Z,4.29
2023-02-24T00:06:51.108Z,4.04
2023-02-24T00:08:22.825Z,4.14
2023-02-24T00:09:54.722Z,4.26
2023-02-24T00:11:28.094Z,4.28
2023-02-24T00:13:01.145Z,4.30
2023-02-24T00:14:34.111Z,4.29
2023-02-24T00:16:06.581Z,4.30
2023-02-24T00:17:38.664Z,4.27
2023-02-24T00:19:11.381Z,4.25
2023-02-24T00:20:43.017Z,4.25
2023-02-24T00:22:14.752Z,4.20
2023-02-24T00:23:47.054Z,4.20
2023-02-24T00:25:18.834Z,4.20
2023-02-24T00:26:54.456Z,4.14
2023-02-24T00:28:28.258Z,4.24
2023-02-24T00:30:01.870Z,4.25
2023-02-24T00:31:33.793Z,4.13
2023-02-24T00:33:06.688Z,4.13
2023-02-24T00:34:38.434Z,3.85
2023-02-24T00:36:11.243Z,3.97
2023-02-24T00:37:42.935Z,3.92
2023-02-24T00:39:14.588Z,3.54
2023-02-24T00:40:46.252Z,3.81
2023-02-24T00:42:17.970Z,3.93
2023-02-24T00:43:51.063Z,3.97
2023-02-24T00:45:22.717Z,3.93
2023-02-24T00:46:54.396Z,3.93
2023-02-24T00:48:28.352Z,3.96
2023-02-24T00:50:00.021Z,3.97
2023-02-24T00:51:33.725Z,3.93
2023-02-24T00:53:06.539Z,3.92
2023-02-24T00:54:38.280Z,3.96
2023-02-24T00:56:12.129Z,3.99
2023-02-24T00:57:45.281Z,3.98
2023-02-24T00:59:23.179Z,4.03
2023-02-24T01:00:55.646Z,3.97
2023-02-24T01:02:27.827Z,3.97
2023-02-24T01:04:00.136Z,3.99
2023-02-24T01:05:31.874Z,3.96
2023-02-24T01:07:03.768Z,3.93
2023-02-24T01:08:38.560Z,3.97
2023-02-24T01:10:12.330Z,3.99
2023-02-24T01:12:03.317Z,4.00
2023-02-24T01:13:34.993Z,3.99
2023-02-24T01:15:10.013Z,3.91
2023-02-24T01:16:41.931Z,3.90
2023-02-24T01:18:13.542Z,3.91
2023-02-24T01:19:45.193Z,3.86
2023-02-24T01:21:17.970Z,3.77
2023-02-24T01:22:50.651Z,3.73
2023-02-24T01:24:22.501Z,3.68
2023-02-24T01:25:54.102Z,3.66
2023-02-24T01:27:25.711Z,3.65
2023-02-24T01:28:57.526Z,3.67
2023-02-24T01:30:31.364Z,3.67
2023-02-24T01:32:03.197Z,3.68
2023-02-24T01:33:37.314Z,3.66
2023-02-24T01:35:09.748Z,3.53
2023-02-24T01:36:43.264Z,3.58
2023-02-24T01:38:15.041Z,3.60
2023-02-24T01:39:46.876Z,3.56
2023-02-24T01:41:20.587Z,3.55
2023-02-24T01:42:52.389Z,3.43
2023-02-24T01:45:12.698Z,3.43
2023-02-24T01:46:48.035Z,3.41
2023-02-24T01:48:19.700Z,3.45
2023-02-24T01:49:52.794Z,3.45
2023-02-24T01:51:24.934Z,3.45
2023-02-24T01:52:58.891Z,3.43
2023-02-24T01:54:32.017Z,3.40
2023-02-24T01:56:05.737Z,3.35
2023-02-24T01:57:38.745Z,3.39
2023-02-24T01:59:10.620Z,3.42
2023-02-24T02:00:46.850Z,3.41
2023-02-24T02:02:20.063Z,3.40
2023-02-24T02:03:52.307Z,3.41
2023-02-24T02:05:25.004Z,3.48
2023-02-24T02:06:57.441Z,3.46
2023-02-24T02:08:29.103Z,3.53
2023-02-24T02:10:04.111Z,3.56
2023-02-24T02:11:35.938Z,3.56
2023-02-24T02:13:07.590Z,3.55
2023-02-24T02:14:43.128Z,3.58
2023-02-24T02:16:29.685Z,3.54
2023-02-24T02:18:04.635Z,3.43
2023-02-24T02:20:17.567Z,3.40
2023-02-24T02:22:05.552Z,3.31
2023-02-24T02:24:04.323Z,3.32
2023-02-24T02:25:43.837Z,3.46
2023-02-24T02:27:58.144Z,3.54
2023-02-24T02:29:56.337Z,3.62
2023-02-24T02:31:50.861Z,3.51
2023-02-24T02:33:43.129Z,3.44
2023-02-24T02:35:18.981Z,3.51
2023-02-24T02:36:55.420Z,3.43
2023-02-24T02:38:28.098Z,3.40
2023-02-24T02:40:08.000Z,3.47
2023-02-24T02:41:46.489Z,3.49
2023-02-24T02:43:19.603Z,3.49
2023-02-24T02:44:56.022Z,3.49
2023-02-24T02:46:34.980Z,3.44
2023-02-24T02:48:08.617Z,3.47
2023-02-24T02:49:42.599Z,3.40
2023-02-24T02:51:16.917Z,3.41
2023-02-24T02:52:54.001Z,3.43
2023-02-24T02:54:28.316Z,3.39
2023-02-24T02:56:00.927Z,3.36
2023-02-24T02:57:33.923Z,3.34
2023-02-24T02:59:05.569Z,3.28
2023-02-24T03:00:42.192Z,3.25
2023-02-24T03:02:14.048Z,3.22
2023-02-24T03:03:46.999Z,3.23
2023-02-24T03:05:21.435Z,3.17
2023-02-24T03:06:55.433Z,3.22
2023-02-24T03:08:29.627Z,3.26
2023-02-24T03:10:04.430Z,3.30
2023-02-24T03:11:36.046Z,3.29
2023-02-24T03:13:07.672Z,3.32
2023-02-24T03:14:40.298Z,3.32
2023-02-24T03:16:12.011Z,3.35
2023-02-24T03:17:45.398Z,3.27
2023-02-24T03:19:20.539Z,3.23
2023-02-24T03:20:57.000Z,3.23
2023-02-24T03:22:33.808Z,3.20
2023-02-24T03:24:06.678Z,3.15
2023-02-24T03:25:39.777Z,3.08
2023-02-24T03:27:13.346Z,2.98
2023-02-24T03:28:49.118Z,2.95
2023-02-24T03:30:23.525Z,3.07
2023-02-24T03:31:59.498Z,3.14
2023-02-24T03:33:33.674Z,3.11
2023-02-24T03:35:07.534Z,3.17
2023-02-24T03:36:40.575Z,3.12
2023-02-24T03:38:12.266Z,3.19
2023-02-24T03:39:46.812Z,3.19
2023-02-24T03:41:18.705Z,3.24
2023-02-24T03:42:51.968Z,3.25
2023-02-24T03:44:24.987Z,3.30
2023-02-24T03:45:56.658Z,3.27
2023-02-24T03:47:28.336Z,3.25
2023-02-24T03:49:02.947Z,3.16
2023-02-24T03:50:34.700Z,3.10
2023-02-24T03:52:12.612Z,3.07
2023-02-24T03:53:51.077Z,3.09
2023-02-24T03:55:27.222Z,3.03
2023-02-24T03:57:06.242Z,3.02
2023-02-24T03:58:47.238Z,2.99
2023-02-24T04:00:22.886Z,2.95
2023-02-24T04:01:58.117Z,3.02
2023-02-24T04:03:32.574Z,3.10
2023-02-24T04:05:09.670Z,3.20
2023-02-24T04:06:43.144Z,3.16
2023-02-24T04:08:16.157Z,3.11
2023-02-24T04:09:50.345Z,2.86
2023-02-24T04:11:24.762Z,3.02
2023-02-24T04:12:59.830Z,3.00
2023-02-24T04:14:34.121Z,3.07
2023-02-24T04:16:09.277Z,3.10
2023-02-24T04:17:43.005Z,3.16
2023-02-24T04:19:15.892Z,3.11
2023-02-24T04:20:53.141Z,3.06
2023-02-24T04:22:24.964Z,3.07
2023-02-24T04:23:58.219Z,2.99
2023-02-24T04:25:30.166Z,3.00
2023-02-24T04:27:02.212Z,2.92
2023-02-24T04:28:33.830Z,2.79
2023-02-24T04:30:07.146Z,2.81
2023-02-24T04:31:39.107Z,2.85
2023-02-24T04:33:11.094Z,2.91
2023-02-24T04:34:42.781Z,2.94
2023-02-24T04:36:14.419Z,2.92
2023-02-24T04:37:46.084Z,2.84
2023-02-24T04:39:19.139Z,2.79
2023-02-24T04:40:51.146Z,2.58
2023-02-24T04:42:22.881Z,2.63
2023-02-24T04:43:54.605Z,2.52
2023-02-24T04:45:28.104Z,2.55
2023-02-24T04:47:00.668Z,2.49
2023-02-24T04:48:32.798Z,2.62
2023-02-24T04:50:10.886Z,2.66
2023-02-24T04:51:42.580Z,2.72
2023-02-24T04:53:15.374Z,2.67
2023-02-24T04:54:48.368Z,2.69
2023-02-24T04:56:22.418Z,2.63
2023-02-24T04:57:54.270Z,2.56
2023-02-24T04:59:26.628Z,2.62
2023-02-24T05:00:58.266Z,2.76
2023-02-24T05:02:30.639Z,2.84
2023-02-24T05:04:02.405Z,2.94
2023-02-24T05:05:34.205Z,2.99
2023-02-24T05:07:05.922Z,2.98
2023-02-24T05:08:38.600Z,2.95
2023-02-24T05:10:12.334Z,2.91
2023-02-24T05:11:44.514Z,2.88
2023-02-24T05:13:17.081Z,2.84
2023-02-24T05:14:49.554Z,2.83
2023-02-24T05:16:22.369Z,2.86
2023-02-24T05:17:54.130Z,2.78
2023-02-24T05:19:58.564Z,2.69
2023-02-24T05:21:36.421Z,2.74
2023-02-24T05:23:09.996Z,2.70
2023-02-24T05:24:41.667Z,2.72
2023-02-24T05:26:18.712Z,2.44
2023-02-24T05:27:50.467Z,2.45
2023-02-24T05:29:22.347Z,2.40
2023-02-24T05:30:56.031Z,2.56
2023-02-24T05:32:27.945Z,2.61
2023-02-24T05:34:01.543Z,2.67
2023-02-24T05:35:36.477Z,2.68
2023-02-24T05:37:10.719Z,2.45
2023-02-24T05:38:44.068Z,2.48
2023-02-24T05:40:19.858Z,2.59
2023-02-24T05:41:54.839Z,2.62
2023-02-24T05:43:26.569Z,2.64
2023-02-24T05:44:58.268Z,2.66
2023-02-24T05:46:32.502Z,2.69
2023-02-24T05:48:05.819Z,2.63
2023-02-24T05:49:38.900Z,2.62
2023-02-24T05:51:12.729Z,2.67
2023-02-24T05:52:45.827Z,2.60
2023-02-24T05:54:17.648Z,2.62
2023-02-24T05:55:49.375Z,2.72
2023-02-24T05:57:25.075Z,2.77
2023-02-24T05:59:01.934Z,2.71
2023-02-24T06:00:33.804Z,2.59
2023-02-24T06:02:07.725Z,2.41
2023-02-24T06:03:41.407Z,2.38
2023-02-24T06:05:25.295Z,2.26
2023-02-24T06:06:58.222Z,2.29
2023-02-24T06:08:36.787Z,2.40
2023-02-24T06:10:11.082Z,2.44
2023-02-24T06:11:45.169Z,2.42
2023-02-24T06:13:18.258Z,2.40
2023-02-24T06:14:49.908Z,2.29
2023-02-24T06:16:21.771Z,2.40
2023-02-24T06:17:56.517Z,2.49
2023-02-24T06:19:31.931Z,2.47
2023-02-24T06:21:03.887Z,2.48
2023-02-24T06:22:42.367Z,2.61
2023-02-24T06:24:15.268Z,2.67
2023-02-24T06:25:47.461Z,2.70
2023-02-24T06:27:19.649Z,2.58
2023-02-24T06:28:54.316Z,2.62
2023-02-24T06:30:27.053Z,2.57
2023-02-24T06:31:59.035Z,2.64
2023-02-24T06:33:31.214Z,2.66
2023-02-24T06:35:02.889Z,2.53
2023-02-24T06:36:34.587Z,2.36
2023-02-24T06:38:06.232Z,2.43
2023-02-24T06:39:37.951Z,2.46
2023-02-24T06:41:12.601Z,2.53
2023-02-24T06:42:47.467Z,2.46
2023-02-24T06:44:20.532Z,2.54
2023-02-24T06:45:52.282Z,2.65
2023-02-24T06:47:24.116Z,2.68
2023-02-24T06:48:58.045Z,2.74
2023-02-24T06:50:29.798Z,2.69
2023-02-24T06:52:01.776Z,2.74
2023-02-24T06:53:35.936Z,2.62
2023-02-24T06:55:25.334Z,2.69
2023-02-24T06:56:58.043Z,2.71
2023-02-24T06:58:31.614Z,2.62
2023-02-24T07:00:26.090Z,2.73
2023-02-24T07:01:58.868Z,2.67
2023-02-24T07:03:39.813Z,2.64
2023-02-24T07:05:14.726Z,2.59
2023-02-24T07:06:49.381Z,2.50
2023-02-24T07:08:22.876Z,2.67
2023-02-24T07:09:54.620Z,2.69
2023-02-24T07:11:26.241Z,2.78
2023-02-24T07:12:59.438Z,2.75
2023-02-24T07:14:31.672Z,2.68
2023-02-24T07:16:07.399Z,2.70
2023-02-24T07:17:39.108Z,2.73
2023-02-24T07:19:13.816Z,2.77
2023-02-24T07:20:46.110Z,2.73
2023-02-24T07:22:25.233Z,2.90
2023-02-24T07:23:59.060Z,3.03
2023-02-24T07:25:33.715Z,3.02
2023-02-24T07:27:06.805Z,2.95
2023-02-24T07:28:40.051Z,2.86
2023-02-24T07:30:12.738Z,2.82
2023-02-24T07:31:46.047Z,2.73
2023-02-24T07:33:19.480Z,2.83
2023-02-24T07:34:51.113Z,2.81
2023-02-24T07:36:30.162Z,2.92
2023-02-24T07:38:05.324Z,3.06
2023-02-24T07:39:37.739Z,3.19
2023-02-24T07:41:13.368Z,3.27
2023-02-24T07:42:47.733Z,3.21
2023-02-24T07:44:20.025Z,3.13
2023-02-24T07:45:52.789Z,3.16
2023-02-24T07:47:26.580Z,3.18
2023-02-24T07:49:01.632Z,3.14
2023-02-24T07:50:33.261Z,3.16
2023-02-24T07:52:08.095Z,3.38
2023-02-24T07:53:40.378Z,3.63
2023-02-24T07:55:12.109Z,3.69
2023-02-24T07:56:48.741Z,3.76
2023-02-24T07:58:21.113Z,3.65
2023-02-24T07:59:54.253Z,3.67
2023-02-24T08:01:28.204Z,3.68
2023-02-24T08:03:01.517Z,3.59
2023-02-24T08:04:33.472Z,3.53
2023-02-24T08:06:15.466Z,3.56
2023-02-24T08:07:49.988Z,3.62
2023-02-24T08:09:42.213Z,3.74
2023-02-24T08:11:14.915Z,3.80
2023-02-24T08:12:47.620Z,3.77
2023-02-24T08:14:19.563Z,3.88
2023-02-24T08:15:56.640Z,3.94
2023-02-24T08:17:28.338Z,4.04
2023-02-24T08:19:03.489Z,4.12
2023-02-24T08:21:04.662Z,4.08
2023-02-24T08:22:37.354Z,4.13
2023-02-24T08:24:17.756Z,4.26
2023-02-24T08:25:49.469Z,4.35
2023-02-24T08:27:23.100Z,4.34
2023-02-24T08:28:54.776Z,4.40
2023-02-24T08:30:29.925Z,4.43
2023-02-24T08:32:01.710Z,4.47
2023-02-24T08:33:37.249Z,4.49
2023-02-24T08:35:15.320Z,4.46
2023-02-24T08:36:55.817Z,4.48
2023-02-24T08:38:39.572Z,4.39
2023-02-24T08:40:33.454Z,4.46
2023-02-24T08:42:07.561Z,4.43
2023-02-24T08:43:39.881Z,4.49
2023-02-24T08:45:11.750Z,4.46
2023-02-24T08:46:43.660Z,4.64
2023-02-24T08:48:18.633Z,4.85
2023-02-24T08:49:53.808Z,4.90
2023-02-24T08:51:30.791Z,4.90
2023-02-24T08:53:02.567Z,4.82
2023-02-24T08:54:34.286Z,4.94
2023-02-24T08:56:09.752Z,5.03
2023-02-24T08:57:53.556Z,5.08
2023-02-24T08:59:29.356Z,4.97
2023-02-24T09:01:04.087Z,5.02
2023-02-24T09:02:40.419Z,5.18
2023-02-24T09:04:12.918Z,5.27
2023-02-24T09:05:46.210Z,5.19
2023-02-24T09:07:20.816Z,5.24
2023-02-24T09:09:13.505Z,5.25
2023-02-24T09:10:46.302Z,5.08
2023-02-24T09:12:24.962Z,5.11
2023-02-24T09:13:58.170Z,5.31
2023-02-24T09:15:41.416Z,5.22
2023-02-24T09:17:13.305Z,5.33
2023-02-24T09:18:44.904Z,5.40
2023-02-24T09:20:36.085Z,5.54
2023-02-24T09:22:31.380Z,5.67
2023-02-24T09:24:07.464Z,5.45
2023-02-24T09:25:44.736Z,5.47
2023-02-24T09:27:17.588Z,5.49
2023-02-24T09:28:49.411Z,5.38
2023-02-24T09:30:37.412Z,5.46
2023-02-24T09:32:14.669Z,5.64
2023-02-24T09:33:51.296Z,5.84
2023-02-24T09:35:30.989Z,5.91
2023-02-24T09:37:05.676Z,5.81
2023-02-24T09:38:56.265Z,5.63
2023-02-24T09:40:48.769Z,5.76
2023-02-24T09:42:20.735Z,6.03
2023-02-24T09:43:59.891Z,5.91
2023-02-24T09:45:34.823Z,5.83
2023-02-24T09:47:13.443Z,5.87
2023-02-24T09:48:51.453Z,5.94
2023-02-24T09:50:55.417Z,5.48
2023-02-24T09:52:39.633Z,5.50
2023-02-24T09:54:16.030Z,5.42
2023-02-24T09:56:06.728Z,5.72
2023-02-24T09:58:01.901Z,5.52
2023-02-24T09:59:36.663Z,5.16
2023-02-24T10:01:31.110Z,5.34
2023-02-24T10:03:19.392Z,5.49
2023-02-24T10:04:55.026Z,4.79
2023-02-24T10:06:35.300Z,4.97
2023-02-24T10:08:09.275Z,5.28
2023-02-24T10:09:41.792Z,5.12
2023-02-24T10:11:15.184Z,5.32
2023-02-24T10:12:48.683Z,5.33
2023-02-24T10:14:42.732Z,5.55
2023-02-24T10:16:23.846Z,5.30
2023-02-24T10:17:57.336Z,5.52
2023-02-24T10:19:29.641Z,5.69
2023-02-24T10:21:11.423Z,5.92
2023-02-24T10:22:51.561Z,6.08
2023-02-24T10:24:29.373Z,6.24
2023-02-24T10:26:31.933Z,6.24
2023-02-24T10:28:08.690Z,6.20
2023-02-24T10:29:53.297Z,6.38
2023-02-24T10:31:29.829Z,6.62
2023-02-24T10:33:02.381Z,6.44
2023-02-24T10:34:36.723Z,6.67
2023-02-24T10:36:13.244Z,6.72
2023-02-24T10:38:05.205Z,6.89
2023-02-24T10:39:36.964Z,6.70
2023-02-24T10:41:09.169Z,6.39
2023-02-24T10:42:49.875Z,6.49
2023-02-24T10:44:24.489Z,6.37
2023-02-24T10:46:06.409Z,6.42
2023-02-24T10:47:44.387Z,6.41
2023-02-24T10:49:17.277Z,6.49
2023-02-24T10:50:56.078Z,6.57
2023-02-24T10:52:39.353Z,6.70
2023-02-24T10:54:33.089Z,6.85
2023-02-24T10:56:24.261Z,7.01
2023-02-24T10:58:15.733Z,7.16
2023-02-24T11:00:33.039Z,7.33
2023-02-24T11:02:38.781Z,7.29
2023-02-24T11:04:22.892Z,7.20
2023-02-24T11:06:08.286Z,7.37
2023-02-24T11:08:00.198Z,7.42
2023-02-24T11:09:35.447Z,7.53
2023-02-24T11:11:20.101Z,7.68
2023-02-24T11:13:11.129Z,7.58
2023-02-24T11:15:07.478Z,7.65
2023-02-24T11:17:03.600Z,7.55
2023-02-24T11:18:35.432Z,7.45
2023-02-24T11:20:15.234Z,7.42
2023-02-24T11:21:46.943Z,7.61
2023-02-24T11:23:22.085Z,7.88
2023-02-24T11:24:57.863Z,7.75
2023-02-24T11:26:36.844Z,7.84
2023-02-24T11:28:23.066Z,7.95
2023-02-24T11:30:15.031Z,8.07
2023-02-24T11:32:13.406Z,8.34
2023-02-24T11:33:52.086Z,8.35
2023-02-24T11:35:26.315Z,8.38
2023-02-24T11:37:02.763Z,8.50
2023-02-24T11:38:39.102Z,8.58
2023-02-24T11:40:15.347Z,8.74
2023-02-24T11:41:50.968Z,8.70
2023-02-24T11:43:24.244Z,8.54
2023-02-24T11:44:58.711Z,8.47
2023-02-24T11:46:36.220Z,8.02
2023-02-24T11:48:15.200Z,8.17
2023-02-24T11:49:48.933Z,7.92
2023-02-24T11:51:23.601Z,7.79
2023-02-24T11:52:56.064Z,8.12
2023-02-24T11:54:27.718Z,8.02
2023-02-24T11:56:02.033Z,8.16
2023-02-24T11:57:37.722Z,7.52
2023-02-24T11:59:12.631Z,7.94
2023-02-24T12:00:48.990Z,7.67
2023-02-24T12:02:26.960Z,7.82
2023-02-24T12:04:07.753Z,8.15
2023-02-24T12:05:40.608Z,8.11
2023-02-24T12:07:16.840Z,8.15
2023-02-24T12:08:50.675Z,8.22
2023-02-24T12:10:24.355Z,8.15
2023-02-24T12:11:58.900Z,7.94
2023-02-24T12:13:33.198Z,7.82
2023-02-24T12:15:10.358Z,8.02
2023-02-24T12:16:45.821Z,8.03
2023-02-24T12:18:20.072Z,7.82
2023-02-24T12:19:57.419Z,8.18
2023-02-24T12:21:31.663Z,8.75
2023-02-24T12:23:10.677Z,8.31
2023-02-24T12:24:47.319Z,8.38
2023-02-24T12:26:19.933Z,8.53
2023-02-24T12:28:01.902Z,8.80
2023-02-24T12:29:48.616Z,8.67
2023-02-24T12:31:25.464Z,8.99
2023-02-24T12:33:01.854Z,9.25
2023-02-24T12:34:37.697Z,9.34
2023-02-24T12:36:14.875Z,9.00
2023-02-24T12:37:55.872Z,9.29
2023-02-24T12:39:29.844Z,9.60
2023-02-24T12:41:10.157Z,9.70
2023-02-24T12:42:44.302Z,9.90
2023-02-24T12:44:22.097Z,9.99
2023-02-24T12:45:57.847Z,10.15
2023-02-24T12:47:36.902Z,10.50
2023-02-24T12:49:18.774Z,10.57
2023-02-24T12:50:52.923Z,10.47
2023-02-24T12:52:28.712Z,10.26
2023-02-24T12:54:04.612Z,10.31
2023-02-24T12:55:41.089Z,10.38
2023-02-24T12:57:17.069Z,10.26
2023-02-24T12:58:49.647Z,10.29
2023-02-24T13:00:24.471Z,10.25
2023-02-24T13:01:59.736Z,10.46
2023-02-24T13:03:40.237Z,10.39
2023-02-24T13:05:15.840Z,10.42
2023-02-24T13:06:53.677Z,10.79
2023-02-24T13:08:29.291Z,11.45
2023-02-24T13:10:08.958Z,11.87
2023-02-24T13:11:43.383Z,12.08
2023-02-24T13:13:23.593Z,12.17
2023-02-24T13:14:55.398Z,12.22
2023-02-24T13:16:52.256Z,11.86
2023-02-24T13:18:25.423Z,11.64
2023-02-24T13:19:57.086Z,11.59
2023-02-24T13:21:28.716Z,11.55
2023-02-24T13:23:01.045Z,11.48
2023-02-24T13:24:37.599Z,11.69
2023-02-24T13:26:10.431Z,11.57
2023-02-24T13:27:42.383Z,11.29
2023-02-24T13:29:14.604Z,10.53
2023-02-24T13:30:46.267Z,10.81
2023-02-24T13:32:25.633Z,10.82
2023-02-24T13:33:57.588Z,10.95
2023-02-24T13:35:31.021Z,10.85
2023-02-24T13:37:02.653Z,10.88
2023-02-24T13:38:37.103Z,10.96
2023-02-24T13:40:22.768Z,10.82
2023-02-24T13:42:04.075Z,10.87
2023-02-24T13:43:35.826Z,10.94
2023-02-24T13:45:18.214Z,10.85
2023-02-24T13:46:56.442Z,10.96
2023-02-24T13:48:53.255Z,10.96
2023-02-24T13:50:25.538Z,10.99
2023-02-24T13:52:00.507Z,11.03
2023-02-24T13:53:41.409Z,10.96
2023-02-24T13:55:29.716Z,11.05
2023-02-24T13:57:06.990Z,11.15
2023-02-24T13:59:18.512Z,11.29
2023-02-24T14:00:59.957Z,11.81
2023-02-24T14:02:32.031Z,11.36
2023-02-24T14:04:06.371Z,11.28
2023-02-24T14:05:39.806Z,10.65
2023-02-24T14:07:15.861Z,10.23
2023-02-24T14:08:50.967Z,10.02
2023-02-24T14:10:27.921Z,9.61
2023-02-24T14:12:01.709Z,9.67
2023-02-24T14:13:38.744Z,9.74
2023-02-24T14:15:13.204Z,9.63
2023-02-24T14:16:45.712Z,9.58
2023-02-24T14:18:21.278Z,9.92
2023-02-24T14:19:56.542Z,9.57
2023-02-24T14:21:30.553Z,9.35
2023-02-24T14:23:04.577Z,9.09
2023-02-24T14:24:36.436Z,9.14
2023-02-24T14:26:08.851Z,9.17
2023-02-24T14:27:46.457Z,9.17
2023-02-24T14:29:19.404Z,8.81
2023-02-24T14:30:55.095Z,8.99
2023-02-24T14:32:29.022Z,8.98
2023-02-24T14:34:02.034Z,9.32
2023-02-24T14:35:35.264Z,9.20
2023-02-24T14:37:08.052Z,9.15
2023-02-24T14:38:44.506Z,9.14
2023-02-24T14:40:17.193Z,8.94
2023-02-24T14:41:49.232Z,8.65
2023-02-24T14:43:22.422Z,8.67
2023-02-24T14:44:55.268Z,8.60
2023-02-24T14:46:27.256Z,8.70
2023-02-24T14:47:59.217Z,8.82
2023-02-24T14:49:32.139Z,8.73
2023-02-24T14:51:09.516Z,8.78
2023-02-24T14:52:44.959Z,9.03
2023-02-24T14:54:20.239Z,8.80
2023-02-24T14:55:52.700Z,8.77
2023-02-24T14:57:28.667Z,8.70
2023-02-24T14:59:02.886Z,8.69
2023-02-24T15:00:35.658Z,8.40
2023-02-24T15:02:13.585Z,8.45
2023-02-24T15:03:46.756Z,8.63
2023-02-24T15:05:18.598Z,8.82
2023-02-24T15:06:50.406Z,8.69
2023-02-24T15:08:32.481Z,8.79
2023-02-24T15:10:07.840Z,8.83
2023-02-24T15:11:40.940Z,8.77
2023-02-24T15:13:15.046Z,8.83
2023-02-24T15:14:50.436Z,8.94
2023-02-24T15:16:23.722Z,9.09
2023-02-24T15:17:57.018Z,8.97
2023-02-24T15:19:34.909Z,9.04
2023-02-24T15:21:07.042Z,9.17
2023-02-24T15:22:48.304Z,9.12
2023-02-24T15:24:20.801Z,9.01
2023-02-24T15:25:55.609Z,9.12
2023-02-24T15:27:51.109Z,9.08
2023-02-24T15:29:30.361Z,9.30
2023-02-24T15:31:09.766Z,9.18
2023-02-24T15:32:42.905Z,9.28
2023-02-24T15:34:19.924Z,9.40
2023-02-24T15:35:56.479Z,9.36
2023-02-24T15:37:29.653Z,9.43
2023-02-24T15:39:02.707Z,9.49
2023-02-24T15:40:34.463Z,9.49
2023-02-24T15:42:07.614Z,9.53
2023-02-24T15:43:45.696Z,9.24
2023-02-24T15:45:29.461Z,9.17
2023-02-24T15:47:17.271Z,9.23
2023-02-24T15:48:49.795Z,9.27
2023-02-24T15:52:07.227Z,9.10
2023-02-24T15:53:39.192Z,9.11
2023-02-24T15:55:13.943Z,9.03
2023-02-24T15:56:45.725Z,9.02
2023-02-24T15:58:20.610Z,9.01
2023-02-24T15:59:52.401Z,8.92
2023-02-24T16:01:26.334Z,9.00
2023-02-24T16:02:59.723Z,9.07
2023-02-24T16:04:33.696Z,8.99
2023-02-24T16:06:05.707Z,8.98
2023-02-24T16:07:40.099Z,8.98
2023-02-24T16:09:15.065Z,8.99
2023-02-24T16:10:46.803Z,9.06
2023-02-24T16:12:21.735Z,9.07
2023-02-24T16:13:55.060Z,8.81
2023-02-24T16:15:31.863Z,8.66
2023-02-24T16:17:05.669Z,8.69
2023-02-24T16:18:39.114Z,8.73
2023-02-24T16:20:12.687Z,8.64
2023-02-24T16:21:50.212Z,8.59
2023-02-24T16:23:43.274Z,8.50
2023-02-24T16:25:15.450Z,8.46
2023-02-24T16:26:47.168Z,8.48
2023-02-24T16:28:20.198Z,8.54
2023-02-24T16:29:51.892Z,8.54
2023-02-24T16:31:24.489Z,8.50
2023-02-24T16:32:56.629Z,8.52
2023-02-24T16:34:29.845Z,8.47
2023-02-24T16:36:01.558Z,8.45
2023-02-24T16:37:33.248Z,8.43
2023-02-24T16:39:05.222Z,8.48
2023-02-24T16:40:37.689Z,8.49
2023-02-24T16:42:10.054Z,8.53
2023-02-24T16:43:41.949Z,8.50
2023-02-24T16:45:13.598Z,8.51
2023-02-24T16:46:45.393Z,8.48
2023-02-24T16:48:20.861Z,8.45
2023-02-24T16:49:57.868Z,8.41
2023-02-24T16:51:31.287Z,8.40
2023-02-24T16:53:02.966Z,8.36
2023-02-24T16:54:34.609Z,8.32
2023-02-24T16:56:07.662Z,8.28
2023-02-24T16:57:39.376Z,8.36
2023-02-24T16:59:11.088Z,8.36
2023-02-24T17:00:44.841Z,8.35
2023-02-24T17:02:18.445Z,8.33
2023-02-24T17:03:50.985Z,8.36
2023-02-24T17:05:25.154Z,8.37
2023-02-24T17:06:57.152Z,8.16
2023-02-24T17:08:28.838Z,8.08
2023-02-24T17:10:00.637Z,8.19
2023-02-24T17:11:32.526Z,8.22
2023-02-24T17:13:04.474Z,8.21
2023-02-24T17:14:36.101Z,8.12
2023-02-24T17:16:07.880Z,7.97
2023-02-24T17:17:40.425Z,7.77
2023-02-24T17:19:12.203Z,7.59
2023-02-24T17:20:48.447Z,7.70
2023-02-24T17:22:37.097Z,7.81
2023-02-24T17:24:10.544Z,7.74
2023-02-24T17:25:42.364Z,7.94
2023-02-24T17:27:14.179Z,7.80
2023-02-24T17:28:46.308Z,7.85
2023-02-24T17:30:20.444Z,7.90
2023-02-24T17:31:52.431Z,7.80
2023-02-24T17:33:24.211Z,7.95
2023-02-24T17:34:56.324Z,7.79
2023-02-24T17:36:29.433Z,7.88
2023-02-24T17:38:01.295Z,7.95
2023-02-24T17:39:33.119Z,7.89
2023-02-24T17:41:05.208Z,7.94
2023-02-24T17:42:37.090Z,8.04
2023-02-24T17:44:12.039Z,7.99
2023-02-24T17:45:44.924Z,7.99
2023-02-24T17:47:22.626Z,8.01
2023-02-24T17:48:55.045Z,8.02
2023-02-24T17:50:26.754Z,8.04
2023-02-24T17:51:59.819Z,8.04
2023-02-24T17:53:32.959Z,7.99
2023-02-24T17:55:11.570Z,8.00
2023-02-24T17:56:43.333Z,8.07
2023-02-24T17:58:15.280Z,8.08
2023-02-24T17:59:47.031Z,7.92
2023-02-24T18:01:20.126Z,7.93
2023-02-24T18:02:52.886Z,8.01
2023-02-24T18:04:27.524Z,8.06
2023-02-24T18:05:59.744Z,8.07
2023-02-24T18:07:35.758Z,7.99
2023-02-24T18:09:07.413Z,7.75
2023-02-24T18:10:41.943Z,7.94
2023-02-24T18:12:13.634Z,7.89
2023-02-24T18:13:45.351Z,7.88
2023-02-24T18:15:17.259Z,7.84
2023-02-24T18:16:48.917Z,7.89
2023-02-24T18:18:20.624Z,7.97
2023-02-24T18:19:53.237Z,7.92
2023-02-24T18:21:24.963Z,7.86
2023-02-24T18:22:59.966Z,7.90
2023-02-24T18:24:31.615Z,7.88
2023-02-24T18:26:03.443Z,7.88
2023-02-24T18:27:35.511Z,7.93
2023-02-24T18:29:07.343Z,7.93
2023-02-24T18:30:39.272Z,7.87
2023-02-24T18:32:11.239Z,7.89
2023-02-24T18:33:44.233Z,7.84
2023-02-24T18:35:18.810Z,7.73
2023-02-24T18:36:50.955Z,7.65
2023-02-24T18:38:25.319Z,7.55
2023-02-24T18:39:57.008Z,7.52
2023-02-24T18:41:28.848Z,7.54
2023-02-24T18:43:00.644Z,7.63
2023-02-24T18:44:32.289Z,7.61
2023-02-24T18:46:05.540Z,7.58
2023-02-24T18:47:37.242Z,7.55
2023-02-24T18:49:09.040Z,7.51
2023-02-24T18:50:40.774Z,7.55
2023-02-24T18:52:13.007Z,7.53
2023-02-24T18:53:46.076Z,7.58
2023-02-24T18:55:22.312Z,7.61
2023-02-24T18:56:54.287Z,7.54
2023-02-24T18:58:26.150Z,7.61
2023-02-24T18:59:58.240Z,7.55
2023-02-24T19:01:30.942Z,7.52
2023-02-24T19:03:02.775Z,7.51
2023-02-24T19:04:34.533Z,7.41
2023-02-24T19:06:06.364Z,7.55
2023-02-24T19:07:38.416Z,7.60
2023-02-24T19:09:11.998Z,7.58
2023-02-24T19:10:43.738Z,7.55
2023-02-24T19:12:17.051Z,7.51
2023-02-24T19:13:48.776Z,7.62
2023-02-24T19:15:22.422Z,7.69
2023-02-24T19:16:54.177Z,7.61
2023-02-24T19:18:26.247Z,7.49
2023-02-24T19:20:04.243Z,7.51
2023-02-24T19:21:36.319Z,7.45
2023-02-24T19:23:08.032Z,7.47
2023-02-24T19:24:46.391Z,7.47
2023-02-24T19:26:19.901Z,7.45
2023-02-24T19:27:52.986Z,7.53
2023-02-24T19:29:27.009Z,7.58
2023-02-24T19:30:59.826Z,7.56
2023-02-24T19:32:31.732Z,7.52
2023-02-24T19:34:04.498Z,7.37
2023-02-24T19:35:39.722Z,7.34
2023-02-24T19:37:11.581Z,7.30
2023-02-24T19:38:43.332Z,7.37
2023-02-24T19:40:16.528Z,7.48
2023-02-24T19:41:49.794Z,7.59
2023-02-24T19:43:21.799Z,7.38
2023-02-24T19:44:53.453Z,7.39
2023-02-24T19:46:25.736Z,7.43
2023-02-24T19:47:59.863Z,7.51
2023-02-24T19:49:31.664Z,7.53
2023-02-24T19:51:09.438Z,7.46
2023-02-24T19:52:41.317Z,7.48
2023-02-24T19:54:13.970Z,7.45
2023-02-24T19:55:49.623Z,7.32
2023-02-24T19:57:21.367Z,7.32
2023-02-24T19:58:53.741Z,7.42
2023-02-24T20:00:25.522Z,7.56
2023-02-24T20:01:59.322Z,7.62
2023-02-24T20:03:31.277Z,7.62
2023-02-24T20:05:03.196Z,7.62
2023-02-24T20:06:36.032Z,7.59
2023-02-24T20:08:07.862Z,7.57
2023-02-24T20:09:40.986Z,7.59
2023-02-24T20:11:14.362Z,7.56
2023-02-24T20:12:46.573Z,7.63
2023-02-24T20:14:18.829Z,7.65
2023-02-24T20:15:50.788Z,7.62
2023-02-24T20:17:22.445Z,7.61
2023-02-24T20:18:54.325Z,7.61
2023-02-24T20:20:26.420Z,7.59
2023-02-24T20:21:58.066Z,7.59
2023-02-24T20:23:29.984Z,7.55
2023-02-24T20:25:03.951Z,7.52
2023-02-24T20:26:37.339Z,7.35
2023-02-24T20:28:09.115Z,7.43
2023-02-24T20:29:41.384Z,7.35
2023-02-24T20:31:15.347Z,7.39
2023-02-24T20:32:47.233Z,7.35
2023-02-24T20:34:19.056Z,7.32
2023-02-24T20:35:50.819Z,7.36
2023-02-24T20:37:22.557Z,7.47
2023-02-24T20:38:54.544Z,7.55
2023-02-24T20:40:26.513Z,7.55
2023-02-24T20:41:59.759Z,7.60
2023-02-24T20:43:31.746Z,7.59
2023-02-24T20:45:03.832Z,7.61
2023-02-24T20:46:36.468Z,7.51
2023-02-24T20:48:08.917Z,7.44
2023-02-24T20:49:43.291Z,7.33
2023-02-24T20:51:15.410Z,7.33
2023-02-24T20:52:49.833Z,7.42
2023-02-24T20:54:21.566Z,7.45
2023-02-24T20:55:53.309Z,7.38
2023-02-24T20:57:26.679Z,7.36
2023-02-24T20:59:02.103Z,7.37
2023-02-24T21:00:34.268Z,7.42
2023-02-24T21:02:10.827Z,7.55
2023-02-24T21:03:42.611Z,7.57
2023-02-24T21:05:21.342Z,7.60
2023-02-24T21:06:54.319Z,7.62
2023-02-24T21:08:28.617Z,7.65